createdAt,value
2022-10-14T00:01:16.913Z,10.40
2022-10-14T00:03:44.944Z,10.30
2022-10-14T00:06:19.084Z,10.30
2022-10-14T00:08:47.645Z,10.30
2022-10-14T00:11:21.119Z,10.20
2022-10-14T00:13:49.018Z,10.30
2022-10-14T00:16:22.662Z,10.30
2022-10-14T00:18:50.952Z,10.20
2022-10-14T00:21:18.835Z,10.30
2022-10-14T00:23:46.901Z,10.30
2022-10-14T00:26:20.936Z,10.30
2022-10-14T00:28:50.414Z,10.40
2022-10-14T00:31:18.453Z,10.40
2022-10-14T00:33:48.269Z,10.50
2022-10-14T00:36:18.496Z,10.40
2022-10-14T00:38:46.972Z,10.40
2022-10-14T00:41:26.274Z,10.50
2022-10-14T00:44:02.952Z,10.50
2022-10-14T00:46:34.017Z,10.50
2022-10-14T00:49:34.289Z,10.50
2022-10-14T00:52:03.156Z,10.50
2022-10-14T00:54:38.274Z,10.50
2022-10-14T00:57:06.321Z,10.50
2022-10-14T00:59:34.406Z,10.50
2022-10-14T01:02:02.145Z,10.50
2022-10-14T01:04:29.856Z,10.60
2022-10-14T01:07:18.506Z,10.60
2022-10-14T01:10:42.918Z,10.60
2022-10-14T01:13:27.990Z,10.60
2022-10-14T01:16:34.674Z,10.60
2022-10-14T01:19:36.902Z,10.60
2022-10-14T01:22:10.094Z,10.50
2022-10-14T01:25:02.892Z,10.50
2022-10-14T01:27:33.374Z,10.50
2022-10-14T01:30:09.880Z,10.60
2022-10-14T01:32:44.014Z,10.60
2022-10-14T01:35:30.415Z,10.70
2022-10-14T01:38:03.828Z,10.60
2022-10-14T01:40:31.617Z,10.70
2022-10-14T01:43:01.303Z,10.70
2022-10-14T01:45:32.976Z,10.70
2022-10-14T01:48:01.980Z,10.80
2022-10-14T01:50:31.676Z,10.80
2022-10-14T01:53:04.547Z,10.80
2022-10-14T01:55:40.008Z,10.90
2022-10-14T01:58:08.777Z,10.90
2022-10-14T02:00:38.232Z,10.80
2022-10-14T02:03:05.761Z,10.80
2022-10-14T02:05:39.466Z,10.90
2022-10-14T02:08:20.953Z,10.90
2022-10-14T02:11:02.339Z,10.90
2022-10-14T02:13:57.730Z,10.90
2022-10-14T02:16:57.192Z,10.80
2022-10-14T02:19:42.217Z,10.80
2022-10-14T02:22:20.207Z,10.80
2022-10-14T02:24:54.195Z,10.80
2022-10-14T02:27:25.082Z,10.80
2022-10-14T02:29:56.686Z,10.90
2022-10-14T02:32:26.069Z,10.90
2022-10-14T02:34:56.685Z,10.80
2022-10-14T02:37:26.800Z,10.90
2022-10-14T02:40:06.077Z,10.80
2022-10-14T02:42:33.828Z,10.90
2022-10-14T02:45:06.414Z,10.90
2022-10-14T02:47:34.204Z,10.90
2022-10-14T02:50:03.891Z,11.00
2022-10-14T02:52:31.867Z,11.00
2022-10-14T02:54:59.367Z,11.00
2022-10-14T02:57:26.896Z,11.00
2022-10-14T02:59:57.227Z,11.00
2022-10-14T03:02:25.890Z,11.00
2022-10-14T03:04:53.487Z,11.10
2022-10-14T03:07:21.017Z,11.00
2022-10-14T03:09:51.681Z,11.00
2022-10-14T03:12:19.387Z,11.00
2022-10-14T03:14:46.970Z,11.00
2022-10-14T03:17:17.349Z,11.10
2022-10-14T03:19:45.986Z,11.10
2022-10-14T03:22:15.384Z,11.10
2022-10-14T03:24:42.837Z,11.10
2022-10-14T03:27:28.661Z,11.10
2022-10-14T03:30:01.437Z,11.10
2022-10-14T03:32:29.012Z,11.10
2022-10-14T03:35:22.371Z,11.00
2022-10-14T03:37:55.878Z,11.00
2022-10-14T03:40:30.503Z,11.10
2022-10-14T03:43:01.233Z,11.00
2022-10-14T03:45:36.018Z,11.00
2022-10-14T03:48:04.906Z,11.00
2022-10-14T03:50:32.365Z,11.00
2022-10-14T03:53:00.651Z,11.00
2022-10-14T03:55:35.199Z,11.00
2022-10-14T03:58:04.547Z,10.90
2022-10-14T04:00:35.774Z,11.00
2022-10-14T04:03:17.642Z,10.90
2022-10-14T04:05:45.224Z,10.90
2022-10-14T04:08:17.250Z,10.90
2022-10-14T04:10:55.827Z,10.90
2022-10-14T04:13:24.839Z,10.80
2022-10-14T04:15:52.390Z,10.80
2022-10-14T04:18:24.444Z,10.80
2022-10-14T04:20:55.427Z,10.70
2022-10-14T04:23:25.604Z,10.60
2022-10-14T04:25:57.726Z,10.60
2022-10-14T04:28:25.934Z,10.60
2022-10-14T04:31:00.180Z,10.60
2022-10-14T04:33:35.170Z,10.50
2022-10-14T04:36:12.300Z,10.50
2022-10-14T04:38:42.556Z,10.50
2022-10-14T04:41:11.559Z,10.50
2022-10-14T04:43:45.662Z,10.50
2022-10-14T04:46:22.753Z,10.50
2022-10-14T04:48:50.678Z,10.50
2022-10-14T04:51:19.976Z,10.60
2022-10-14T04:54:04.986Z,10.60
2022-10-14T04:56:42.443Z,10.50
2022-10-14T04:59:12.041Z,10.50
2022-10-14T05:02:05.567Z,10.50
2022-10-14T05:04:40.956Z,10.50
2022-10-14T05:07:09.377Z,10.50
2022-10-14T05:09:37.923Z,10.40
2022-10-14T05:12:12.166Z,10.40
2022-10-14T05:14:47.206Z,10.50
2022-10-14T05:17:21.791Z,10.50
2022-10-14T05:19:49.301Z,10.40
2022-10-14T05:22:19.213Z,10.30
2022-10-14T05:24:46.944Z,10.30
2022-10-14T05:27:14.893Z,10.30
2022-10-14T05:29:43.292Z,10.20
2022-10-14T05:32:10.848Z,10.20
2022-10-14T05:34:42.627Z,10.20
2022-10-14T05:37:14.174Z,10.20
2022-10-14T05:39:48.462Z,10.20
2022-10-14T05:42:19.660Z,10.20
2022-10-14T05:44:48.197Z,10.30
2022-10-14T05:47:16.766Z,10.20
2022-10-14T05:49:47.155Z,10.20
2022-10-14T05:52:14.903Z,10.20
2022-10-14T05:54:45.640Z,10.20
2022-10-14T05:57:16.934Z,10.10
2022-10-14T05:59:44.498Z,10.10
2022-10-14T06:02:11.999Z,10.10
2022-10-14T06:04:42.431Z,10.00
2022-10-14T06:07:11.075Z,10.00
2022-10-14T06:09:39.453Z,10.00
2022-10-14T06:12:07.253Z,9.90
2022-10-14T06:14:34.844Z,9.80
2022-10-14T06:17:02.551Z,9.90
2022-10-14T06:19:32.969Z,9.80
2022-10-14T06:22:00.531Z,9.80
2022-10-14T06:24:28.052Z,9.80
2022-10-14T06:26:55.572Z,9.80
2022-10-14T06:29:26.420Z,9.90
2022-10-14T06:31:53.898Z,9.90
2022-10-14T06:34:23.833Z,9.90
2022-10-14T06:36:51.315Z,9.90
2022-10-14T06:39:18.827Z,10.00
2022-10-14T06:41:46.376Z,10.00
2022-10-14T06:44:20.872Z,10.10
2022-10-14T06:46:48.325Z,10.10
2022-10-14T06:49:15.838Z,10.10
2022-10-14T06:51:43.379Z,10.20
2022-10-14T06:54:11.070Z,10.20
2022-10-14T06:56:38.672Z,10.30
2022-10-14T06:59:06.217Z,10.20
2022-10-14T07:01:33.838Z,10.20
2022-10-14T07:04:02.031Z,10.20
2022-10-14T07:06:29.492Z,10.20
2022-10-14T07:08:56.959Z,10.20
2022-10-14T07:11:24.419Z,10.20
2022-10-14T07:13:51.868Z,10.20
2022-10-14T07:16:19.325Z,10.30
2022-10-14T07:18:47.039Z,10.20
2022-10-14T07:21:14.744Z,10.20
2022-10-14T07:23:42.200Z,10.20
2022-10-14T07:26:09.872Z,10.20
2022-10-14T07:28:37.473Z,10.20
2022-10-14T07:31:08.033Z,10.10
2022-10-14T07:36:13.576Z,10.20
2022-10-14T07:38:43.320Z,10.20
2022-10-14T07:41:19.655Z,10.10
2022-10-14T07:43:53.156Z,10.10
2022-10-14T07:46:35.144Z,10.00
2022-10-14T07:49:09.001Z,10.00
2022-10-14T07:51:36.771Z,10.10
2022-10-14T07:54:09.737Z,10.10
2022-10-14T07:56:39.586Z,10.10
2022-10-14T07:59:07.506Z,10.10
2022-10-14T08:01:35.372Z,10.10
2022-10-14T08:04:03.705Z,10.10
2022-10-14T08:06:31.149Z,10.20
2022-10-14T08:08:58.698Z,10.20
2022-10-14T08:11:28.603Z,10.30
2022-10-14T08:13:58.876Z,10.30
2022-10-14T08:16:32.356Z,10.20
2022-10-14T08:19:02.446Z,10.20
2022-10-14T08:21:29.905Z,10.20
2022-10-14T08:23:57.609Z,10.20
2022-10-14T08:26:33.918Z,10.20
2022-10-14T08:29:04.559Z,10.30
2022-10-14T08:31:32.969Z,10.30
2022-10-14T08:34:00.537Z,10.30
2022-10-14T08:36:28.300Z,10.40
2022-10-14T08:38:56.044Z,10.40
2022-10-14T08:42:01.965Z,10.50
2022-10-14T08:44:44.503Z,10.50
2022-10-14T08:47:15.700Z,10.60
2022-10-14T08:49:59.593Z,10.50
2022-10-14T08:52:35.006Z,10.60
2022-10-14T08:55:20.778Z,10.60
2022-10-14T08:57:57.800Z,10.60
2022-10-14T09:00:25.591Z,10.70
2022-10-14T09:02:53.197Z,10.60
2022-10-14T09:05:26.429Z,10.70
2022-10-14T09:07:56.566Z,10.60
2022-10-14T09:10:41.940Z,10.60
2022-10-14T09:13:22.270Z,10.60
2022-10-14T09:15:58.240Z,10.60
2022-10-14T09:18:28.342Z,10.70
2022-10-14T09:20:56.415Z,10.70
2022-10-14T09:23:25.773Z,10.60
2022-10-14T09:26:08.865Z,10.70
2022-10-14T09:28:40.214Z,10.70
2022-10-14T09:31:11.949Z,10.80
2022-10-14T09:33:42.608Z,10.70
2022-10-14T09:36:17.617Z,10.80
2022-10-14T09:38:54.011Z,10.90
2022-10-14T09:41:26.976Z,10.90
2022-10-14T09:44:21.361Z,11.00
2022-10-14T09:47:03.418Z,11.10
2022-10-14T09:49:46.439Z,11.00
2022-10-14T09:52:23.494Z,11.00
2022-10-14T09:54:56.326Z,11.00
2022-10-14T09:57:25.532Z,11.10
2022-10-14T10:00:02.424Z,11.10
2022-10-14T10:02:43.613Z,11.10
2022-10-14T10:05:29.898Z,11.10
2022-10-14T10:08:15.533Z,11.20
2022-10-14T10:11:00.489Z,11.30
2022-10-14T10:13:39.453Z,11.30
2022-10-14T10:16:08.750Z,11.30
2022-10-14T10:18:36.303Z,11.40
2022-10-14T10:21:20.443Z,11.50
2022-10-14T10:24:18.102Z,11.60
2022-10-14T10:26:46.872Z,11.70
2022-10-14T10:29:35.496Z,11.80
2022-10-14T10:32:30.200Z,11.90
2022-10-14T10:35:12.235Z,11.90
2022-10-14T10:37:48.728Z,12.00
2022-10-14T10:41:02.892Z,12.00
2022-10-14T10:43:45.966Z,12.00
2022-10-14T10:46:21.323Z,12.00
2022-10-14T10:48:56.117Z,12.00
2022-10-14T10:51:45.751Z,12.00
2022-10-14T10:54:38.330Z,12.10
2022-10-14T10:57:50.127Z,12.10
2022-10-14T11:03:06.851Z,12.40
2022-10-14T11:05:50.796Z,12.60
2022-10-14T11:08:48.776Z,12.70
2022-10-14T11:11:43.845Z,12.70
2022-10-14T11:14:11.296Z,12.80
2022-10-14T11:17:04.465Z,12.80
2022-10-14T11:20:05.664Z,12.80
2022-10-14T11:22:54.750Z,12.80
2022-10-14T11:26:07.562Z,12.80
2022-10-14T11:28:55.821Z,12.80
2022-10-14T11:31:34.535Z,12.70
2022-10-14T11:34:14.285Z,12.70
2022-10-14T11:36:55.196Z,12.70
2022-10-14T11:39:35.664Z,12.60
2022-10-14T11:42:24.694Z,12.50
2022-10-14T11:45:31.723Z,12.50
2022-10-14T11:48:29.033Z,12.50
2022-10-14T11:51:35.797Z,12.50
2022-10-14T11:54:31.466Z,12.50
2022-10-14T11:57:02.104Z,12.50
2022-10-14T12:00:19.388Z,12.50
2022-10-14T12:03:25.963Z,12.50
2022-10-14T12:06:05.276Z,12.50
2022-10-14T12:08:46.247Z,12.40
2022-10-14T12:11:21.849Z,12.50
2022-10-14T12:13:54.293Z,12.50
2022-10-14T12:16:24.241Z,12.50
2022-10-14T12:18:56.558Z,12.50
2022-10-14T12:21:28.069Z,12.50
2022-10-14T12:24:15.797Z,12.40
2022-10-14T12:26:57.431Z,12.30
2022-10-14T12:29:41.764Z,12.30
2022-10-14T12:32:21.018Z,12.30
2022-10-14T12:34:50.885Z,12.30
2022-10-14T12:37:27.386Z,12.30
2022-10-14T12:40:05.923Z,12.40
2022-10-14T12:42:35.379Z,12.40
2022-10-14T12:45:18.286Z,12.40
2022-10-14T12:47:46.152Z,12.30
2022-10-14T12:50:17.728Z,12.30
2022-10-14T12:52:47.760Z,12.20
2022-10-14T12:55:23.690Z,12.10
2022-10-14T12:57:57.115Z,12.00
2022-10-14T13:00:24.540Z,12.00
2022-10-14T13:03:00.141Z,12.00
2022-10-14T13:05:38.193Z,12.00
2022-10-14T13:08:21.110Z,12.00
2022-10-14T13:10:54.726Z,12.00
2022-10-14T13:13:41.931Z,12.00
2022-10-14T13:16:21.678Z,12.00
2022-10-14T13:18:52.656Z,11.90
2022-10-14T13:21:36.297Z,11.90
2022-10-14T13:24:17.342Z,11.90
2022-10-14T13:26:53.918Z,12.00
2022-10-14T13:29:21.407Z,12.00
2022-10-14T13:32:05.510Z,12.00
2022-10-14T13:34:55.399Z,12.00
2022-10-14T13:37:45.700Z,12.00
2022-10-14T13:40:24.500Z,12.00
2022-10-14T13:42:56.329Z,12.00
2022-10-14T13:45:39.651Z,12.00
2022-10-14T13:48:33.414Z,12.00
2022-10-14T13:51:24.461Z,12.00
2022-10-14T13:54:24.759Z,12.00
2022-10-14T14:02:44.725Z,12.00
2022-10-14T14:05:20.673Z,11.90
2022-10-14T14:10:46.784Z,11.80
2022-10-14T14:13:26.373Z,11.80
2022-10-14T14:15:55.069Z,11.80
2022-10-14T14:18:56.282Z,11.70
2022-10-14T14:21:28.827Z,11.10
2022-10-14T14:23:58.425Z,10.60
2022-10-14T14:26:39.627Z,9.90
2022-10-14T14:29:18.109Z,9.60
2022-10-14T14:32:05.588Z,9.50
2022-10-14T14:34:37.359Z,9.30
2022-10-14T14:37:43.548Z,9.20
2022-10-14T14:40:08.171Z,9.20
2022-10-14T14:42:39.668Z,8.90
2022-10-14T14:45:15.120Z,8.80
2022-10-14T14:47:43.252Z,8.60
2022-10-14T14:50:32.242Z,8.70
2022-10-14T14:53:04.332Z,8.80
2022-10-14T14:55:55.744Z,8.80
2022-10-14T14:58:50.681Z,8.70
2022-10-14T15:01:24.800Z,8.80
2022-10-14T15:04:13.307Z,8.80
2022-10-14T15:06:50.916Z,8.80
2022-10-14T15:09:30.282Z,9.00
2022-10-14T15:12:00.840Z,9.00
2022-10-14T15:14:48.087Z,9.00
2022-10-14T15:17:35.142Z,8.90
2022-10-14T15:20:05.656Z,8.90
2022-10-14T15:22:35.225Z,9.00
2022-10-14T15:25:18.109Z,9.00
2022-10-14T15:28:16.081Z,9.00
2022-10-14T15:30:43.537Z,9.00
2022-10-14T15:33:20.379Z,9.10
2022-10-14T15:36:01.922Z,9.10
2022-10-14T15:41:05.625Z,9.10
2022-10-14T15:43:34.802Z,9.10
2022-10-14T15:46:20.589Z,9.20
2022-10-14T15:48:52.386Z,9.30
2022-10-14T15:51:21.623Z,9.30
2022-10-14T15:53:49.845Z,9.40
2022-10-14T15:56:17.504Z,9.10
2022-10-14T15:58:45.044Z,9.10
2022-10-14T16:01:20.942Z,9.10
2022-10-14T16:03:49.663Z,9.00
2022-10-14T16:06:17.307Z,9.10
2022-10-14T16:08:46.563Z,9.20
2022-10-14T16:11:22.872Z,9.20
2022-10-14T16:13:50.435Z,9.20
2022-10-14T16:16:24.247Z,9.10
2022-10-14T16:18:52.676Z,9.10
2022-10-14T16:21:20.227Z,9.00
2022-10-14T16:23:47.661Z,8.90
2022-10-14T16:26:15.302Z,8.90
2022-10-14T16:28:42.906Z,9.00
2022-10-14T16:31:14.459Z,8.90
2022-10-14T16:33:44.894Z,8.80
2022-10-14T16:36:14.957Z,8.80
2022-10-14T16:38:43.651Z,8.70
2022-10-14T16:41:11.951Z,8.80
2022-10-14T16:43:39.511Z,8.80
2022-10-14T16:46:10.534Z,8.80
2022-10-14T16:48:40.980Z,8.60
2022-10-14T16:51:08.899Z,8.60
2022-10-14T16:53:45.024Z,8.50
2022-10-14T16:56:39.507Z,8.60
2022-10-14T16:59:08.200Z,8.40
2022-10-14T17:01:36.338Z,8.60
2022-10-14T17:04:06.972Z,8.60
2022-10-14T17:06:34.531Z,8.60
2022-10-14T17:09:02.114Z,8.50
2022-10-14T17:11:29.887Z,8.40
2022-10-14T17:14:00.505Z,8.30
2022-10-14T17:16:28.846Z,8.20
2022-10-14T17:18:58.576Z,8.00
2022-10-14T17:21:29.444Z,7.90
2022-10-14T17:24:04.669Z,7.90
2022-10-14T17:26:33.230Z,7.80
2022-10-14T17:29:00.955Z,7.80
2022-10-14T17:31:29.070Z,7.80
2022-10-14T17:33:56.620Z,7.90
2022-10-14T17:36:30.828Z,7.80
2022-10-14T17:38:59.351Z,7.80
2022-10-14T17:41:29.688Z,7.80
2022-10-14T17:43:58.836Z,7.90
2022-10-14T17:46:29.233Z,7.90
2022-10-14T17:48:58.965Z,7.70
2022-10-14T17:51:28.575Z,7.60
2022-10-14T17:54:04.135Z,7.50
2022-10-14T17:56:33.326Z,7.40
2022-10-14T17:59:02.826Z,7.40
2022-10-14T18:01:37.986Z,7.30
2022-10-14T18:06:52.666Z,7.20
2022-10-14T18:09:20.209Z,7.10
2022-10-14T18:14:38.867Z,7.10
2022-10-14T18:17:06.796Z,7.20
2022-10-14T18:19:35.074Z,7.00
2022-10-14T18:22:04.014Z,6.90
2022-10-14T18:24:32.384Z,7.00
2022-10-14T18:26:59.795Z,7.00
2022-10-14T18:29:27.304Z,7.10
2022-10-14T18:31:54.752Z,7.00
2022-10-14T18:34:24.672Z,7.10
2022-10-14T18:36:52.165Z,6.90
2022-10-14T18:39:22.556Z,7.00
2022-10-14T18:41:50.043Z,7.00
2022-10-14T18:44:17.533Z,7.00
2022-10-14T18:46:47.644Z,6.90
2022-10-14T18:49:15.722Z,6.90
2022-10-14T18:51:43.485Z,6.90
2022-10-14T18:54:23.725Z,6.80
2022-10-14T18:56:51.548Z,6.70
2022-10-14T18:59:23.459Z,6.70
2022-10-14T19:01:55.332Z,6.70
2022-10-14T19:04:26.940Z,6.70
2022-10-14T19:06:54.582Z,6.70
2022-10-14T19:09:24.889Z,6.70
2022-10-14T19:11:53.125Z,6.70
2022-10-14T19:14:22.118Z,6.70
2022-10-14T19:16:49.879Z,6.70
2022-10-14T19:19:19.814Z,6.70
2022-10-14T19:21:54.427Z,6.60
2022-10-14T19:24:22.363Z,6.60
2022-10-14T19:26:50.232Z,6.50
2022-10-14T19:29:17.971Z,6.40
2022-10-14T19:31:45.664Z,6.40
2022-10-14T19:34:15.704Z,6.30
2022-10-14T19:36:44.506Z,6.30
2022-10-14T19:39:14.873Z,6.30
2022-10-14T19:41:47.342Z,6.30
2022-10-14T19:44:16.368Z,6.20
2022-10-14T19:46:44.960Z,6.20
2022-10-14T19:49:14.281Z,6.20
2022-10-14T19:51:42.151Z,6.20
2022-10-14T19:54:11.903Z,6.10
2022-10-14T19:56:40.076Z,6.10
2022-10-14T19:59:08.300Z,6.00
2022-10-14T20:01:35.994Z,6.10
2022-10-14T20:04:03.808Z,6.00
2022-10-14T20:06:37.787Z,6.00
2022-10-14T20:09:06.268Z,6.10
2022-10-14T20:11:34.067Z,6.10
2022-10-14T20:14:01.616Z,6.00
2022-10-14T20:16:29.216Z,6.10
2022-10-14T20:18:56.716Z,6.10
2022-10-14T20:21:24.744Z,6.10
2022-10-14T20:23:52.348Z,6.10
2022-10-14T20:26:21.402Z,6.10
2022-10-14T20:28:50.039Z,6.10
2022-10-14T20:31:20.527Z,6.00
2022-10-14T20:33:48.520Z,5.90
2022-10-14T20:36:20.994Z,5.90
2022-10-14T20:38:49.270Z,5.90
2022-10-14T20:41:18.479Z,5.90
2022-10-14T20:43:46.647Z,5.80
2022-10-14T20:46:14.434Z,5.80
2022-10-14T20:48:42.276Z,5.80
2022-10-14T20:51:12.750Z,5.90
2022-10-14T20:56:11.097Z,5.90
2022-10-14T20:58:39.069Z,6.00
2022-10-14T21:01:17.468Z,6.00
2022-10-14T21:03:46.383Z,6.10
2022-10-14T21:06:17.157Z,6.10
2022-10-14T21:08:45.321Z,6.00
2022-10-14T21:11:15.664Z,5.80
2022-10-14T21:13:47.972Z,5.70
2022-10-14T21:16:21.063Z,5.70
2022-10-14T21:18:55.022Z,5.50
2022-10-14T21:21:27.091Z,5.40
2022-10-14T21:23:55.748Z,5.30
2022-10-14T21:26:23.542Z,5.30
2022-10-14T21:28:51.184Z,5.30
2022-10-14T21:31:19.991Z,5.30
2022-10-14T21:33:48.421Z,5.30
2022-10-14T21:36:16.698Z,5.20
2022-10-14T21:38:44.642Z,5.20
2022-10-14T21:41:12.484Z,5.00
2022-10-14T21:43:40.702Z,5.00
2022-10-14T21:46:11.585Z,5.00
2022-10-14T21:48:39.744Z,5.00
2022-10-14T21:51:08.610Z,4.90
2022-10-14T21:53:36.941Z,5.00
2022-10-14T21:56:04.771Z,5.00
2022-10-14T21:58:33.135Z,5.10
2022-10-14T22:01:13.030Z,5.10
2022-10-14T22:03:41.554Z,5.20
2022-10-14T22:06:15.180Z,5.20
2022-10-14T22:08:45.827Z,5.20
2022-10-14T22:11:37.617Z,5.20
2022-10-14T22:14:07.327Z,5.20
2022-10-14T22:16:35.464Z,5.20
2022-10-14T22:19:05.491Z,5.10
2022-10-14T22:21:34.825Z,5.10
2022-10-14T22:24:02.906Z,5.10
2022-10-14T22:26:31.271Z,5.20
2022-10-14T22:29:02.792Z,5.20
2022-10-14T22:31:33.009Z,5.10
2022-10-14T22:34:02.145Z,5.10
2022-10-14T22:36:29.945Z,5.20
2022-10-14T22:38:59.117Z,5.10
2022-10-14T22:41:30.988Z,5.00
2022-10-14T22:44:01.801Z,5.00
2022-10-14T22:46:31.460Z,5.00
2022-10-14T22:49:00.846Z,5.00
2022-10-14T22:51:31.611Z,5.00
2022-10-14T22:53:59.145Z,5.10
2022-10-14T22:56:28.221Z,5.10
2022-10-14T22:59:13.551Z,5.20
2022-10-14T23:01:42.931Z,5.30
2022-10-14T23:04:11.209Z,5.30
2022-10-14T23:06:39.946Z,5.20
2022-10-14T23:09:07.391Z,5.10
2022-10-14T23:11:34.915Z,5.10
2022-10-14T23:14:06.260Z,5.10
2022-10-14T23:16:35.240Z,4.90
2022-10-14T23:19:02.748Z,4.80
2022-10-14T23:21:32.907Z,4.70
2022-10-14T23:24:02.375Z,4.70
2022-10-14T23:26:31.847Z,4.70
2022-10-14T23:29:00.719Z,4.80
2022-10-14T23:31:31.039Z,4.70
2022-10-14T23:34:00.600Z,4.70
2022-10-14T23:36:28.717Z,4.70
2022-10-14T23:38:56.339Z,4.70
2022-10-14T23:41:24.104Z,4.60
2022-10-14T23:43:52.606Z,4.50
2022-10-14T23:46:20.755Z,4.40
2022-10-14T23:48:55.899Z,4.30
2022-10-14T23:51:34.657Z,4.40
2022-10-14T23:54:02.026Z,4.30
2022-10-14T23:56:29.641Z,4.40
2022-10-14T23:58:57.063Z,4.30
